Time;durP1;ratioP1;P1;durP2;ratioP2;P2;SDS_P1;SDS_P2;PMS_P1;PMS_P2;Temp;Humidity;BMP_temperature;BMP_pressure;BME280_temperature;BME280_humidity;BME280_pressure;Samples;Min_cycle;Max_cycle;Signal;HPM_P1;HPM_P2
2022/04/09 00:00:51;;;;;;;;;;;;;;;;;;2021905;28;20007;-75
2022/04/09 00:01:50;;;;;;;;;;;;;;;;;;2022127;28;19909;-75
2022/04/09 00:02:49;;;;;;;;;;;;;;;;;;2022055;28;19909;-75
2022/04/09 00:03:47;;;;;;;;;;;;;;;;;;2021957;28;19964;-76
2022/04/09 00:04:47;;;;;;;;;;;;;;;;;;2022020;28;19920;-76
2022/04/09 00:05:47;;;;;;;;;;;;;;;;;;2021947;28;20367;-75
2022/04/09 00:06:46;;;;;;;;;;;;;;;;;;2021919;28;20355;-75
2022/04/09 00:07:45;;;;;;;;;;;;;;;;;;2021859;28;19978;-75
2022/04/09 00:08:43;;;;;;;;;;;;;;;;;;2021256;28;19963;-75
2022/04/09 00:09:44;;;;;;;;;;;;;;;;;;2021485;28;20003;-75
2022/04/09 00:10:42;;;;;;;;;;;;;;;;;;2021260;28;19916;-75
2022/04/09 00:11:41;;;;;;;;;;;;;;;;;;2021297;28;20324;-75
2022/04/09 00:12:44;;;;;;;;;;;;;;;;;;2020868;28;19948;-75
2022/04/09 00:13:43;;;;;;;;;;;;;;;;;;2021452;28;20399;-76
2022/04/09 00:14:42;;;;;;;;;;;;;;;;;;2022051;28;19909;-75
2022/04/09 00:15:41;;;;;;;;;;;;;;;;;;2021909;28;19959;-76
2022/04/09 00:16:43;;;;;;;;;;;;;;;;;;2021950;28;19908;-76
2022/04/09 00:17:42;;;;;;;;;;;;;;;;;;2022123;28;19909;-76
2022/04/09 00:18:43;;;;;;;;;;;;;;;;;;2022048;28;19909;-77
2022/04/09 00:19:43;;;;;;;;;;;;;;;;;;2022019;28;19913;-77
2022/04/09 00:20:41;;;;;;;;;;;;;;;;;;2022113;28;19909;-75
2022/04/09 00:21:40;;;;;;;;;;;;;;;;;;2021847;28;20368;-75
2022/04/09 00:22:39;;;;;;;;;;;;;;;;;;2022055;28;20012;-75
2022/04/09 00:23:38;;;;;;;;;;;;;;;;;;2021169;28;19916;-75
2022/04/09 00:24:38;;;;;;;;;;;;;;;;;;2021377;28;19908;-76
2022/04/09 00:25:36;;;;;;;;;;;;;;;;;;2021803;28;19909;-76
2022/04/09 00:26:35;;;;;;;;;;;;;;;;;;2021154;28;19909;-76
2022/04/09 00:27:34;;;;;;;;;;;;;;;;;;2021343;28;19909;-76
2022/04/09 00:28:33;;;;;;;;;;;;;;;;;;2021777;28;20062;-75
2022/04/09 00:29:32;;;;;;;;;;;;;;;;;;2022008;28;19929;-75
2022/04/09 00:30:31;;;;;;;;;;;;;;;;;;2022094;28;19916;-75
2022/04/09 00:31:30;;;;;;;;;;;;;;;;;;2022093;28;19909;-75
2022/04/09 00:32:28;;;;;;;;;;;;;;;;;;2022014;28;19944;-75
2022/04/09 00:33:28;;;;;;;;;;;;;;;;;;2021662;28;19909;-76
2022/04/09 00:34:26;;;;;;;;;;;;;;;;;;2021803;28;19955;-76
2022/04/09 00:35:25;;;;;;;;;;;;;;;;;;2021677;28;19909;-76
2022/04/09 00:36:24;;;;;;;;;;;;;;;;;;2021768;28;19915;-77
2022/04/09 00:37:24;;;;;;;;;;;;;;;;;;2021716;28;19912;-76
2022/04/09 00:38:25;;;;;;;;;;;;;;;;;;2021032;28;19912;-76
2022/04/09 00:39:24;;;;;;;;;;;;;;;;;;2021128;28;19913;-76
2022/04/09 00:40:25;;;;;;;;;;;;;;;;;;2021033;28;19912;-75
2022/04/09 00:41:23;;;;;;;;;;;;;;;;;;2021196;28;19955;-76
2022/04/09 00:42:22;;;;;;;;;;;;;;;;;;2021586;28;19909;-76
2022/04/09 00:43:21;;;;;;;;;;;;;;;;;;2021715;28;19916;-75
2022/04/09 00:44:21;;;;;;;;;;;;;;;;;;2021589;28;19916;-75
2022/04/09 00:45:20;;;;;;;;;;;;;;;;;;2021012;28;19908;-76
2022/04/09 00:46:18;;;;;;;;;;;;;;;;;;2021157;28;19909;-76
2022/04/09 00:47:17;;;;;;;;;;;;;;;;;;2021690;28;19987;-76
2022/04/09 00:48:16;;;;;;;;;;;;;;;;;;2021666;28;20280;-75
2022/04/09 00:49:15;;;;;;;;;;;;;;;;;;2021720;28;19913;-75
2022/04/09 00:50:14;;;;;;;;;;;;;;;;;;2021670;28;19916;-76
2022/04/09 00:51:13;;;;;;;;;;;;;;;;;;2020821;28;19952;-76
2022/04/09 00:52:13;;;;;;;;;;;;;;;;;;2020933;28;19913;-76
2022/04/09 00:53:12;;;;;;;;;;;;;;;;;;2021083;28;20395;-76
2022/04/09 00:54:11;;;;;;;;;;;;;;;;;;2021373;28;20013;-75
2022/04/09 00:55:10;;;;;;;;;;;;;;;;;;2021681;28;19915;-75
2022/04/09 00:56:21;;;;;;;;;;;;;;;;;;2021630;28;19909;-75
2022/04/09 00:57:19;;;;;;;;;;;;;;;;;;2020938;28;19959;-75
2022/04/09 00:58:18;;;;;;;;;;;;;;;;;;2021075;28;20354;-76
2022/04/09 00:59:17;;;;;;;;;;;;;;;;;;2021534;28;19958;-76
2022/04/09 01:00:16;;;;;;;;;;;;;;;;;;2021566;28;20004;-76
2022/04/09 01:01:15;;;;;;;;;;;;;;;;;;2021540;28;20006;-75
2022/04/09 01:02:14;;;;;;;;;;;;;;;;;;2021582;28;19913;-75
2022/04/09 01:03:16;;;;;;;;;;;;;;;;;;2021500;28;20347;-75
2022/04/09 01:04:15;;;;;;;;;;;;;;;;;;2020848;28;19909;-75
2022/04/09 01:05:14;;;;;;;;;;;;;;;;;;2020388;28;19952;-76
2022/04/09 01:06:13;;;;;;;;;;;;;;;;;;2021150;28;20609;-76
2022/04/09 01:07:12;;;;;;;;;;;;;;;;;;2021456;28;19908;-77
2022/04/09 01:08:11;;;;;;;;;;;;;;;;;;2021556;28;19921;-76
2022/04/09 01:09:10;;;;;;;;;;;;;;;;;;2021441;28;19917;-76
2022/04/09 01:10:09;;;;;;;;;;;;;;;;;;2021467;28;19909;-76
2022/04/09 01:11:08;;;;;;;;;;;;;;;;;;2021378;28;19916;-77
2022/04/09 01:12:07;;;;;;;;;;;;;;;;;;2021460;28;19909;-76
2022/04/09 01:13:06;;;;;;;;;;;;;;;;;;2021471;28;20328;-76
2022/04/09 01:14:04;;;;;;;;;;;;;;;;;;2021418;28;19909;-76
2022/04/09 01:15:03;;;;;;;;;;;;;;;;;;2021291;28;19913;-75
2022/04/09 01:16:02;;;;;;;;;;;;;;;;;;2021271;28;19932;-76
2022/04/09 01:17:01;;;;;;;;;;;;;;;;;;2021362;28;20261;-76
2022/04/09 01:18:00;;;;;;;;;;;;;;;;;;2021587;28;19908;-76
2022/04/09 01:18:59;;;;;;;;;;;;;;;;;;2021483;28;19908;-76
2022/04/09 01:19:58;;;;;;;;;;;;;;;;;;2021420;28;19909;-76
2022/04/09 01:20:57;;;;;;;;;;;;;;;;;;2020662;28;20545;-76
2022/04/09 01:21:56;;;;;;;;;;;;;;;;;;2020800;28;19909;-76
2022/04/09 01:22:56;;;;;;;;;;;;;;;;;;2021415;28;20025;-76
2022/04/09 01:23:55;;;;;;;;;;;;;;;;;;2021327;28;19932;-76
2022/04/09 01:24:54;;;;;;;;;;;;;;;;;;2021351;28;19919;-76
2022/04/09 01:25:53;;;;;;;;;;;;;;;;;;2021466;28;19912;-76
2022/04/09 01:26:51;;;;;;;;;;;;;;;;;;2021337;28;19909;-76
2022/04/09 01:27:50;;;;;;;;;;;;;;;;;;2021309;28;19909;-76
2022/04/09 01:28:49;;;;;;;;;;;;;;;;;;2021430;28;20376;-76
2022/04/09 01:29:48;;;;;;;;;;;;;;;;;;2021602;28;20214;-76
2022/04/09 01:30:47;;;;;;;;;;;;;;;;;;2021388;28;20427;-76
2022/04/09 01:31:46;;;;;;;;;;;;;;;;;;2020672;28;19959;-76
2022/04/09 01:32:45;;;;;;;;;;;;;;;;;;2020782;28;20352;-76
2022/04/09 01:33:44;;;;;;;;;;;;;;;;;;2021314;28;20000;-76
2022/04/09 01:34:42;;;;;;;;;;;;;;;;;;2021489;28;20359;-76
2022/04/09 01:35:41;;;;;;;;;;;;;;;;;;2021515;28;19916;-76
2022/04/09 01:36:40;;;;;;;;;;;;;;;;;;2021357;28;19916;-76
2022/04/09 01:37:39;;;;;;;;;;;;;;;;;;2021486;28;19908;-76
2022/04/09 01:38:39;;;;;;;;;;;;;;;;;;2021475;28;19909;-76
2022/04/09 01:39:38;;;;;;;;;;;;;;;;;;2021287;28;19954;-76
2022/04/09 01:40:37;;;;;;;;;;;;;;;;;;2021347;28;19958;-76
2022/04/09 01:41:35;;;;;;;;;;;;;;;;;;2021140;28;20303;-76
2022/04/09 01:42:36;;;;;;;;;;;;;;;;;;2021366;28;19915;-76
2022/04/09 01:43:35;;;;;;;;;;;;;;;;;;2021250;28;19916;-76
2022/04/09 01:44:35;;;;;;;;;;;;;;;;;;2021261;28;19913;-76
2022/04/09 01:45:34;;;;;;;;;;;;;;;;;;2021201;28;19912;-75
2022/04/09 01:46:32;;;;;;;;;;;;;;;;;;2021130;28;20268;-76
2022/04/09 01:47:31;;;;;;;;;;;;;;;;;;2021229;28;19958;-76
2022/04/09 01:48:32;;;;;;;;;;;;;;;;;;2020626;28;19916;-76
2022/04/09 01:49:32;;;;;;;;;;;;;;;;;;2020517;28;20002;-76
2022/04/09 01:50:32;;;;;;;;;;;;;;;;;;2020461;28;19924;-76
2022/04/09 01:51:31;;;;;;;;;;;;;;;;;;2021064;28;20423;-76
2022/04/09 01:52:34;;;;;;;;;;;;;;;;;;2021245;28;19915;-76
2022/04/09 01:53:34;;;;;;;;;;;;;;;;;;2021215;28;19909;-76
2022/04/09 01:54:34;;;;;;;;;;;15.70;92.70;;;;;;2021286;28;19931;-76
2022/04/09 01:55:33;;;;;;;;;;;15.70;92.70;;;;;;2021099;28;20012;-76
2022/04/09 01:56:32;;;;;;;;;;;15.70;92.60;;;;;;2021103;28;19909;-76
2022/04/09 01:57:30;;;;;;;;;;;15.70;92.50;;;;;;2021194;28;19999;-75
2022/04/09 01:58:29;;;;;;;;;;;15.70;92.40;;;;;;2021097;28;19909;-76
2022/04/09 01:59:27;;;;;;;;;;;15.70;92.30;;;;;;2021135;28;19909;-76
2022/04/09 02:00:25;;;;;;;;;;;15.70;92.20;;;;;;2020600;28;19919;-76
2022/04/09 02:01:24;;;;;;;;;;;15.70;92.10;;;;;;2020455;28;20418;-76
2022/04/09 02:02:22;;;;;;;;;;;15.70;92.10;;;;;;2021211;28;19909;-76
2022/04/09 02:03:21;;;;;;;;;;;15.70;92.10;;;;;;2021062;28;19951;-76
2022/04/09 02:04:20;;;;;;;;;;;15.70;92.00;;;;;;2021298;28;20257;-76
2022/04/09 02:05:19;;;;;;;;;;;15.70;92.00;;;;;;2021364;28;19948;-76
2022/04/09 02:06:17;;;;;;;;;;;15.70;92.00;;;;;;2021296;28;19915;-76
2022/04/09 02:07:17;;;;;;;;;;;15.70;92.30;;;;;;2021157;28;20348;-76
2022/04/09 02:08:15;;;;;;;;;;;15.60;92.00;;;;;;2021639;28;20375;-76
2022/04/09 02:09:13;;;;;;;;;;;15.70;91.90;;;;;;2021646;28;19978;-75
2022/04/09 02:10:12;;;;;;;;;;;15.70;92.00;;;;;;2021526;28;19909;-75
2022/04/09 02:11:10;;;;;;;;;;;15.70;91.90;;;;;;2021425;28;19909;-75
2022/04/09 02:12:09;;;;;;;;;;;15.70;91.90;;;;;;2021789;28;20264;-75
2022/04/09 02:13:12;;;;;;;;;;;15.70;91.90;;;;;;2025992;28;19908;-75
2022/04/09 02:14:11;;;;;;;;;;;15.70;91.90;;;;;;2028125;28;19909;-75
2022/04/09 02:15:10;;;;;;;;;;;15.70;91.80;;;;;;2029953;28;19904;-74
2022/04/09 02:16:09;;;;;;;;;;;15.70;91.80;;;;;;2027478;28;20027;-75
2022/04/09 02:17:07;;;;;;;;;;;15.70;91.90;;;;;;2026296;28;20082;-75
2022/04/09 02:18:06;;;;;;;;;;;15.70;91.80;;;;;;2021247;28;20000;-76
2022/04/09 02:19:04;;;;;;;;;;;15.70;91.80;;;;;;2021507;28;19912;-75
2022/04/09 02:20:03;;;;;;;;;;;15.70;91.90;;;;;;2021231;28;19908;-75
2022/04/09 02:21:02;;;;;;;;;;;15.60;91.80;;;;;;2021117;28;19913;-75
2022/04/09 02:22:00;;;;;;;;;;;15.60;91.80;;;;;;2021203;28;19909;-75
2022/04/09 02:22:59;;;;;;;;;;;15.60;91.80;;;;;;2021078;28;19908;-75
2022/04/09 02:23:57;;;;;;;;;;;15.70;91.80;;;;;;2020980;28;19908;-75
2022/04/09 02:24:56;;;;;;;;;;;15.70;91.80;;;;;;2021060;28;19909;-76
2022/04/09 02:25:55;;;;;;;;;;;15.60;91.80;;;;;;2021001;28;19913;-76
2022/04/09 02:26:54;;;;;;;;;;;15.60;91.80;;;;;;2020874;28;19978;-75
2022/04/09 02:27:52;;;;;;;;;;;15.60;91.80;;;;;;2021109;28;20331;-75
2022/04/09 02:28:52;;;;;;;;;;;15.60;91.80;;;;;;2021168;28;19916;-76
2022/04/09 02:29:52;;;;;;;;;;;15.60;91.80;;;;;;2021146;28;19909;-77
2022/04/09 02:30:50;;;;;;;;;;;15.60;91.80;;;;;;2020978;28;20038;-76
2022/04/09 02:31:48;;;;;;;;;;;15.60;91.80;;;;;;2020975;28;19909;-76
2022/04/09 02:32:48;;;;;;;;;;;15.60;91.90;;;;;;2021132;28;19943;-75
2022/04/09 02:33:47;;;;;;;;;;;15.60;91.90;;;;;;2020909;28;19915;-76
2022/04/09 02:34:46;;;;;;;;;;;15.60;91.80;;;;;;2020952;28;20360;-76
2022/04/09 02:35:44;;;;;;;;;;;15.60;91.80;;;;;;2020406;28;19952;-76
2022/04/09 02:36:42;;;;;;;;;;;15.60;91.80;;;;;;2004253;28;19920;-76
2022/04/09 02:37:41;;;;;;;;;;;15.60;91.90;;;;;;2011857;28;20335;-76
2022/04/09 02:38:39;;;;;;;;;;;15.60;91.80;;;;;;2020389;28;20291;-76
2022/04/09 02:39:38;;;;;;;;;;;15.60;91.80;;;;;;2020997;28;19915;-76
2022/04/09 02:40:37;;;;;;;;;;;15.50;91.80;;;;;;2020993;28;19916;-76
2022/04/09 02:41:35;;;;;;;;;;;15.60;91.80;;;;;;2021061;28;20244;-76
2022/04/09 02:42:38;;;;;;;;;;;15.60;91.80;;;;;;2020978;28;20275;-76
2022/04/09 02:43:37;;;;;;;;;;;15.60;91.90;;;;;;2020920;28;19978;-75
2022/04/09 02:44:35;;;;;;;;;;;15.60;91.90;;;;;;2020975;28;19912;-76
2022/04/09 02:45:33;;;;;;;;;;;15.60;91.90;;;;;;2020943;28;19913;-76
2022/04/09 02:46:34;;;;;;;;;;;15.60;91.90;;;;;;2020758;28;19964;-75
2022/04/09 02:47:33;;;;;;;;;;;15.50;91.80;;;;;;2020196;28;19912;-75
2022/04/09 02:48:31;;;;;;;;;;;15.60;91.90;;;;;;2020400;28;19909;-76
2022/04/09 02:49:30;;;;;;;;;;;15.60;91.90;;;;;;2020873;28;20360;-75
2022/04/09 02:50:30;;;;;;;;;;;15.60;91.90;;;;;;2020920;28;19942;-76
2022/04/09 02:51:28;;;;;;;;;;;15.60;91.90;;;;;;2020746;28;19909;-75
2022/04/09 02:52:31;;;;;;;;;;;15.60;91.90;;;;;;2020967;28;19964;-75
2022/04/09 02:53:30;;;;;;;;;;;15.50;91.80;;;;;;2020860;28;20382;-75
2022/04/09 02:54:28;;;;;;;;;;;15.60;92.10;;;;;;2020954;28;19975;-75
2022/04/09 02:55:27;;;;;;;;;;;15.60;91.80;;;;;;2020889;28;20259;-76
2022/04/09 02:56:25;;;;;;;;;;;15.60;91.80;;;;;;2020687;28;19962;-75
2022/04/09 02:57:23;;;;;;;;;;;15.50;91.80;;;;;;2020861;28;19919;-77
2022/04/09 02:58:22;;;;;;;;;;;15.60;91.90;;;;;;2020759;28;20383;-76
2022/04/09 02:59:20;;;;;;;;;;;15.50;91.80;;;;;;2020900;28;19975;-75
2022/04/09 03:00:19;;;;;;;;;;;15.50;91.90;;;;;;2020832;28;19916;-75
2022/04/09 03:01:17;;;;;;;;;;;15.50;91.90;;;;;;2020783;28;19968;-75
2022/04/09 03:02:16;;;;;;;;;;;15.50;91.90;;;;;;2020910;28;19936;-75
2022/04/09 03:03:14;;;;;;;;;;;15.50;91.90;;;;;;2020869;28;19919;-75
2022/04/09 03:04:13;;;;;;;;;;;15.50;91.90;;;;;;2020722;28;19909;-75
2022/04/09 03:05:13;;;;;;;;;;;15.50;91.90;;;;;;2020744;28;19908;-75
2022/04/09 03:06:11;;;;;;;;;;;15.50;91.90;;;;;;2020043;28;19938;-76
2022/04/09 03:07:11;;;;;;;;;;;15.50;91.90;;;;;;2020293;28;19959;-75
2022/04/09 03:08:09;;;;;;;;;;;15.50;91.90;;;;;;2020966;28;19909;-75
2022/04/09 03:09:08;;;;;;;;;;;15.50;91.90;;;;;;2020765;28;19916;-77
2022/04/09 03:10:07;;;;;;;;;;;15.50;91.90;;;;;;2020806;28;19920;-75
2022/04/09 03:11:08;;;;;;;;;;;15.50;91.90;;;;;;2020746;28;19909;-76
2022/04/09 03:12:07;;;;;;;;;;;15.50;92.00;;;;;;2020734;28;19909;-76
2022/04/09 03:13:06;;;;;;;;;;;15.50;92.00;;;;;;2020835;28;19966;-76
2022/04/09 03:14:04;;;;;;;;;;;15.50;91.90;;;;;;2019993;28;19912;-76
2022/04/09 03:15:03;;;;;;;;;;;15.50;92.00;;;;;;2020268;28;19941;-75
2022/04/09 03:16:02;;;;;;;;;;;15.50;92.00;;;;;;2020697;28;20296;-75
2022/04/09 03:17:00;;;;;;;;;;;15.50;92.00;;;;;;2020918;28;20332;-76
2022/04/09 03:17:59;;;;;;;;;;;15.50;92.00;;;;;;2021070;28;20276;-76
2022/04/09 03:18:57;;;;;;;;;;;15.50;92.00;;;;;;2020899;28;19916;-76
2022/04/09 03:19:56;;;;;;;;;;;15.50;92.00;;;;;;2020815;28;20482;-76
2022/04/09 03:20:54;;;;;;;;;;;15.50;92.00;;;;;;2020720;28;19913;-76
2022/04/09 03:21:53;;;;;;;;;;;15.50;92.00;;;;;;2021027;28;19908;-76
2022/04/09 03:22:51;;;;;;;;;;;15.50;92.00;;;;;;2020849;28;20398;-75
2022/04/09 03:23:49;;;;;;;;;;;15.50;92.10;;;;;;2020701;28;19908;-76
2022/04/09 03:24:48;;;;;;;;;;;15.50;92.00;;;;;;2020711;28;19915;-75
2022/04/09 03:25:48;;;;;;;;;;;15.40;92.00;;;;;;2021161;28;19909;-75
2022/04/09 03:26:46;;;;;;;;;;;15.40;92.40;;;;;;2024616;28;20003;-76
2022/04/09 03:27:45;;;;;;;;;;;15.40;92.10;;;;;;2026292;28;19909;-75
2022/04/09 03:28:44;;;;;;;;;;;15.50;92.10;;;;;;2027697;28;19935;-75
2022/04/09 03:29:42;;;;;;;;;;;15.40;92.10;;;;;;2028826;28;19909;-75
2022/04/09 03:30:44;;;;;;;;;;;15.50;92.20;;;;;;2025244;28;19915;-74
2022/04/09 03:31:43;;;;;;;;;;;15.40;92.10;;;;;;2023257;28;19908;-75
2022/04/09 03:32:41;;;;;;;;;;;15.50;92.20;;;;;;2022822;28;19908;-75
2022/04/09 03:33:40;;;;;;;;;;;15.40;92.20;;;;;;2022833;28;19917;-75
2022/04/09 03:34:38;;;;;;;;;;;15.50;92.20;;;;;;2022582;28;20352;-76
2022/04/09 03:35:37;;;;;;;;;;;15.40;92.20;;;;;;2022400;28;20007;-75
2022/04/09 03:36:36;;;;;;;;;;;15.40;92.30;;;;;;2022364;28;19920;-75
2022/04/09 03:37:35;;;;;;;;;;;15.50;92.40;;;;;;2022679;28;20379;-75
2022/04/09 03:38:34;;;;;;;;;;;15.40;92.40;;;;;;2022279;28;19956;-75
2022/04/09 03:39:32;;;;;;;;;;;15.40;92.00;;;;;;2022345;28;19909;-75
2022/04/09 03:40:31;;;;;;;;;;;15.40;92.30;;;;;;2022339;28;19955;-75
2022/04/09 03:41:29;;;;;;;;;;;15.50;92.40;;;;;;2022157;28;20079;-75
2022/04/09 03:42:27;;;;;;;;;;;15.50;92.50;;;;;;2022314;28;19909;-75
2022/04/09 03:43:26;;;;;;;;;;;15.40;92.40;;;;;;2022239;28;19952;-75
2022/04/09 03:44:24;;;;;;;;;;;15.40;92.40;;;;;;2022177;28;20201;-75
2022/04/09 03:45:23;;;;;;;;;;;15.40;92.40;;;;;;2022229;28;19916;-75
2022/04/09 03:46:22;;;;;;;;;;;15.40;92.20;;;;;;2022066;28;19909;-75
2022/04/09 03:47:21;;;;;;;;;;;15.40;92.50;;;;;;2021372;28;19913;-75
2022/04/09 03:48:19;;;;;;;;;;;15.50;92.50;;;;;;2021547;28;19916;-75
2022/04/09 03:49:17;;;;;;;;;;;15.50;92.60;;;;;;2022178;28;19908;-76
2022/04/09 03:50:17;;;;;;;;;;;15.40;92.50;;;;;;2022338;28;19996;-75
2022/04/09 03:51:15;;;;;;;;;;;15.40;92.60;;;;;;2021761;28;19913;-75
2022/04/09 03:52:13;;;;;;;;;;;15.40;92.60;;;;;;2022061;28;19955;-76
2022/04/09 03:53:12;;;;;;;;;;;15.40;92.60;;;;;;2021978;28;19930;-76
2022/04/09 03:54:10;;;;;;;;;;;15.40;92.60;;;;;;2022092;28;19908;-76
2022/04/09 03:55:09;;;;;;;;;;;15.40;92.70;;;;;;2022055;28;19908;-76
2022/04/09 03:56:07;;;;;;;;;;;15.40;92.70;;;;;;2021629;28;19975;-76
2022/04/09 03:57:06;;;;;;;;;;;15.40;92.70;;;;;;2021552;28;19908;-76
2022/04/09 03:58:04;;;;;;;;;;;15.40;92.70;;;;;;2021905;28;20279;-76
2022/04/09 03:59:04;;;;;;;;;;;15.40;92.70;;;;;;2022217;28;20382;-76
2022/04/09 04:00:03;;;;;;;;;;;15.40;92.80;;;;;;2022115;28;20268;-76
2022/04/09 04:01:02;;;;;;;;;;;15.40;92.80;;;;;;2022033;28;19909;-76
2022/04/09 04:02:00;;;;;;;;;;;15.30;92.80;;;;;;2021562;28;19909;-76
2022/04/09 04:02:59;;;;;;;;;;;15.30;92.90;;;;;;2021575;28;19978;-76
2022/04/09 04:03:57;;;;;;;;;;;15.30;92.90;;;;;;2022054;28;19931;-76
2022/04/09 04:05:01;;;;;;;;;;;15.30;92.90;;;;;;2022154;28;19955;-75
2022/04/09 04:06:01;;;;;;;;;;;15.30;93.00;;;;;;2022232;28;20007;-75
2022/04/09 04:06:59;;;;;;;;;;;15.30;93.00;;;;;;2021934;28;20415;-76
2022/04/09 04:07:57;;;;;;;;;;;15.30;93.00;;;;;;2021985;28;19909;-76
2022/04/09 04:08:56;;;;;;;;;;;15.30;93.00;;;;;;2022043;28;19994;-76
2022/04/09 04:09:54;;;;;;;;;;;15.40;93.10;;;;;;2021438;28;19950;-76
2022/04/09 04:10:53;;;;;;;;;;;15.30;92.90;;;;;;2021310;28;20342;-76
2022/04/09 04:11:51;;;;;;;;;;;15.30;93.00;;;;;;2022023;28;19916;-77
2022/04/09 04:12:51;;;;;;;;;;;;;;;;;;2021282;28;20006;-75
2022/04/09 04:13:51;;;;;;;;;;;;;;;;;;2021410;28;20292;-76
2022/04/09 04:14:50;;;;;;;;;;;;;;;;;;2020693;28;20004;-76
2022/04/09 04:15:51;;;;;;;;;;;;;;;;;;2021302;28;19909;-75
2022/04/09 04:16:51;;;;;;;;;;;;;;;;;;2021161;28;19909;-76
2022/04/09 04:17:50;;;;;;;;;;;;;;;;;;2021320;28;19909;-76
2022/04/09 04:18:50;;;;;;;;;;;;;;;;;;2021878;28;19931;-76
2022/04/09 04:19:50;;;;;;;;;;;;;;;;;;2021913;28;19958;-76
2022/04/09 04:20:50;;;;;;;;;;;;;;;;;;2021791;28;20383;-75
2022/04/09 04:21:50;;;;;;;;;;;;;;;;;;2021017;28;20420;-75
2022/04/09 04:22:51;;;;;;;;;;;;;;;;;;2021198;28;20383;-75
2022/04/09 04:23:51;;;;;;;;;;;;;;;;;;2021680;28;20327;-75
2022/04/09 04:24:51;;;;;;;;;;;;;;;;;;2021760;28;20329;-75
2022/04/09 04:25:51;;;;;;;;;;;;;;;;;;2021767;28;19932;-75
2022/04/09 04:26:53;;;;;;;;;;;;;;;;;;2021727;28;19940;-76
2022/04/09 04:27:55;;;;;;;;;;;;;;;;;;2021938;28;20343;-76
2022/04/09 04:28:56;;;;;;;;;;;;;;;;;;2021703;28;19916;-76
2022/04/09 04:30:06;;;;;;;;;;;;;;;;;;2021806;28;19909;-76
2022/04/09 04:31:06;;;;;;;;;;;;;;;;;;2021907;28;20013;-76
2022/04/09 04:32:05;;;;;;;;;;;;;;;;;;2021693;28;19913;-76
2022/04/09 04:33:04;;;;;;;;;;;;;;;;;;2021845;28;19940;-76
2022/04/09 04:34:04;;;;;;;;;;;;;;;;;;2021111;28;19995;-76
2022/04/09 04:35:03;;;;;;;;;;;;;;;;;;2021327;28;19943;-76
2022/04/09 04:36:01;;;;;;;;;;;;;;;;;;2021754;28;19995;-76
2022/04/09 04:37:00;;;;;;;;;;;;;;;;;;2021802;28;19919;-75
2022/04/09 04:37:59;;;;;;;;;;;;;;;;;;2021655;28;19909;-76
2022/04/09 04:38:58;;;;;;;;;;;;;;;;;;2021703;28;20356;-76
2022/04/09 04:39:57;;;;;;;;;;;;;;;;;;2021221;28;19909;-76
2022/04/09 04:40:56;;;;;;;;;;;;;;;;;;2021052;28;19908;-75
2022/04/09 04:41:55;;;;;;;;;;;;;;;;;;2021713;28;19917;-76
2022/04/09 04:42:54;;;;;;;;;;;;;;;;;;2021792;28;19912;-75
2022/04/09 04:43:53;;;;;;;;;;;;;;;;;;2021033;28;19913;-76
2022/04/09 04:44:52;;;;;;;;;;;;;;;;;;2021070;28;19947;-76
2022/04/09 04:45:50;;;;;;;;;;;;;;;;;;2021771;28;19908;-76
2022/04/09 04:46:49;;;;;;;;;;;;;;;;;;2021768;28;19909;-75
2022/04/09 04:47:48;;;;;;;;;;;;;;;;;;2021643;28;20264;-76
2022/04/09 04:48:47;;;;;;;;;;;;;;;;;;2021735;28;19913;-76
2022/04/09 04:49:46;;;;;;;;;;;;;;;;;;2021876;28;19912;-76
2022/04/09 04:50:45;;;;;;;;;;;;;;;;;;2021265;28;20342;-75
2022/04/09 04:51:43;;;;;;;;;;;;;;;;;;2020924;28;20017;-75
2022/04/09 04:52:42;;;;;;;;;;;;;;;;;;2021634;28;20239;-75
2022/04/09 04:53:41;;;;;;;;;;;;;;;;;;2021086;28;19909;-77
2022/04/09 04:54:40;;;;;;;;;;;;;;;;;;2021640;28;20007;-76
2022/04/09 04:55:39;;;;;;;;;;;;;;;;;;2022059;28;19909;-76
2022/04/09 04:56:38;;;;;;;;;;;;;;;;;;2021922;28;19913;-75
2022/04/09 04:57:37;;;;;;;;;;;;;;;;;;2021246;28;19913;-75
2022/04/09 04:58:36;;;;;;;;;;;;;;;;;;2021714;28;19931;-75
2022/04/09 04:59:35;;;;;;;;;;;;;;;;;;2023356;28;20281;-76
2022/04/09 05:00:33;;;;;;;;;;;;;;;;;;2025011;28;19909;-75
2022/04/09 05:01:34;;;;;;;;;;;;;;;;;;2026695;28;19908;-76
2022/04/09 05:02:33;;;;;;;;;;;;;;;;;;2028920;28;20004;-76
2022/04/09 05:03:32;;;;;;;;;;;;;;;;;;2026049;28;19909;-76
2022/04/09 05:04:31;;;;;;;;;;;;;;;;;;2023421;28;20344;-75
2022/04/09 05:05:29;;;;;;;;;;;;;;;;;;2022350;28;19916;-76
2022/04/09 05:06:28;;;;;;;;;;;;;;;;;;2022140;28;19915;-75
2022/04/09 05:07:28;;;;;;;;;;;;;;;;;;2022028;28;19909;-75
2022/04/09 05:08:27;;;;;;;;;;;;;;;;;;2021891;28;19909;-76
2022/04/09 05:09:26;;;;;;;;;;;;;;;;;;2021848;28;19959;-76
2022/04/09 05:10:27;;;;;;;;;;;;;;;;;;2021745;28;20279;-76
2022/04/09 05:11:25;;;;;;;;;;;;;;;;;;2021946;28;19916;-75
2022/04/09 05:12:24;;;;;;;;;;;;;;;;;;2020874;28;19980;-75
2022/04/09 05:13:23;;;;;;;;;;;;;;;;;;2021037;28;20359;-76
2022/04/09 05:14:23;;;;;;;;;;;;;;;;;;2021551;28;19916;-76
2022/04/09 05:15:22;;;;;;;;;;;;;;;;;;2021666;28;19928;-76
2022/04/09 05:16:22;;;;;;;;;;;;;;;;;;2021549;28;19956;-76
2022/04/09 05:17:21;;;;;;;;;;;;;;;;;;2021005;28;19916;-75
2022/04/09 05:18:20;;;;;;;;;;;;;;;;;;2021011;28;19916;-76
2022/04/09 05:19:19;;;;;;;;;;;;;;;;;;2021588;28;19909;-76
2022/04/09 05:20:18;;;;;;;;;;;;;;;;;;2021608;28;20002;-76
2022/04/09 05:21:16;;;;;;;;;;;;;;;;;;2021555;28;19909;-76
2022/04/09 05:22:16;;;;;;;;;;;;;;;;;;2021687;28;19912;-76
2022/04/09 05:23:15;;;;;;;;;;;;;;;;;;2021523;28;19962;-76
2022/04/09 05:24:14;;;;;;;;;;;;;;;;;;2021565;28;19912;-75
2022/04/09 05:25:13;;;;;;;;;;;;;;;;;;2021602;28;19917;-76
2022/04/09 05:26:12;;;;;;;;;;;;;;;;;;2021355;28;20328;-75
2022/04/09 05:27:11;;;;;;;;;;;;;;;;;;2021512;28;20302;-77
2022/04/09 05:28:10;;;;;;;;;;;;;;;;;;2021609;28;20066;-76
2022/04/09 05:29:08;;;;;;;;;;;;;;;;;;2021590;28;19909;-76
2022/04/09 05:30:07;;;;;;;;;;;;;;;;;;2021565;28;19913;-75
2022/04/09 05:31:08;;;;;;;;;;;;;;;;;;2021533;28;19954;-76
2022/04/09 05:32:09;;;;;;;;;;;;;;;;;;2021490;28;20336;-76
2022/04/09 05:33:09;;;;;;;;;;;;;;;;;;2021376;28;19912;-76
2022/04/09 05:34:08;;;;;;;;;;;;;;;;;;2021367;28;19913;-75
2022/04/09 05:35:07;;;;;;;;;;;;;;;;;;2021599;28;20030;-76
2022/04/09 05:36:06;;;;;;;;;;;;;;;;;;2021595;28;20240;-77
2022/04/09 05:37:04;;;;;;;;;;;;;;;;;;2021785;28;20328;-75
2022/04/09 05:38:04;;;;;;;;;;;;;;;;;;2021625;28;19916;-77
2022/04/09 05:39:03;;;;;;;;;;;;;;;;;;2021666;28;19916;-75
2022/04/09 05:40:02;;;;;;;;;;;;;;;;;;2021452;28;20471;-75
2022/04/09 05:41:01;;;;;;;;;;;;;;;;;;2021560;28;19931;-75
2022/04/09 05:42:00;;;;;;;;;;;;;;;;;;2020900;28;19920;-75
2022/04/09 05:42:59;;;;;;;;;;;;;;;;;;2021013;28;19909;-76
2022/04/09 05:43:58;;;;;;;;;;;;;;;;;;2021683;28;19920;-75
2022/04/09 05:44:57;;;;;;;;;;;;;;;;;;2020857;28;20007;-75
2022/04/09 05:45:57;;;;;;;;;;;;;;;;;;2020804;28;19909;-77
2022/04/09 05:46:56;;;;;;;;;;;;;;;;;;2021320;28;19999;-77
2022/04/09 05:47:56;;;;;;;;;;;;;;;;;;2020871;28;19909;-76
2022/04/09 05:48:55;;;;;;;;;;;;;;;;;;2021005;28;19909;-76
2022/04/09 05:49:54;;;;;;;;;;;;;;;;;;2021529;28;19908;-76
2022/04/09 05:50:53;;;;;;;;;;;;;;;;;;2021632;28;20348;-75
2022/04/09 05:51:53;;;;;;;;;;;;;;;;;;2020873;28;19961;-76
2022/04/09 05:52:53;;;;;;;;;;;;;;;;;;2021596;28;19909;-76
2022/04/09 05:53:52;;;;;;;;;;;;;;;;;;2021349;28;19908;-76
2022/04/09 05:54:51;;;;;;;;;;;;;;;;;;2021194;28;19939;-76
2022/04/09 05:55:50;;;;;;;;;;;;;;;;;;2021260;28;20323;-77
2022/04/09 05:56:49;;;;;;;;;;;;;;;;;;2020415;28;19948;-76
2022/04/09 05:57:48;;;;;;;;;;;;;;;;;;2021784;28;19912;-76
2022/04/09 05:58:46;;;;;;;;;;;;;;;;;;2021268;28;20295;-76
2022/04/09 05:59:45;;;;;;;;;;;;;;;;;;2021386;28;19909;-75
2022/04/09 06:00:44;;;;;;;;;;;;;;;;;;2021325;28;19909;-76
2022/04/09 06:01:43;;;;;;;;;;;;;;;;;;2020419;28;19962;-76
2022/04/09 06:02:42;;;;;;;;;;;;;;;;;;2020461;28;20299;-76
2022/04/09 06:03:41;;;;;;;;;;;;;;;;;;2020840;28;20380;-76
2022/04/09 06:04:40;;;;;;;;;;;;;;;;;;2020081;28;20410;-78
2022/04/09 06:05:39;;;;;;;;;;;;;;;;;;2020938;28;19916;-76
2022/04/09 06:06:38;;;;;;;;;;;;;;;;;;2021268;28;19927;-76
2022/04/09 06:07:37;;;;;;;;;;;;;;;;;;2021113;28;19909;-77
2022/04/09 06:08:35;;;;;;;;;;;;;;;;;;2020683;28;19909;-76
2022/04/09 06:09:34;;;;;;;;;;;;;;;;;;2020848;28;19928;-76
2022/04/09 06:10:33;;;;;;;;;;;;;;;;;;2021371;28;19920;-76
2022/04/09 06:11:32;;;;;;;;;;;;;;;;;;2021417;28;19909;-76
2022/04/09 06:12:31;;;;;;;;;;;;;;;;;;2021191;28;20348;-77
2022/04/09 06:13:30;;;;;;;;;;;;;;;;;;2021334;28;19909;-76
2022/04/09 06:14:29;;;;;;;;;;;;;;;;;;2020396;28;19909;-78
2022/04/09 06:15:27;;;;;;;;;;;;;;;;;;2020628;28;19913;-77
2022/04/09 06:16:26;;;;;;;;;;;;;;;;;;2021128;28;19955;-76
2022/04/09 06:17:25;;;;;;;;;;;;;;;;;;2020485;28;19908;-76
2022/04/09 06:18:24;;;;;;;;;;;;;;;;;;2020691;28;19931;-76
2022/04/09 06:19:23;;;;;;;;;;;;;;;;;;2021079;28;19909;-76